Time;durP1;ratioP1;P1;durP2;ratioP2;P2;SDS_P1;SDS_P2;PMS_P1;PMS_P2;Temp;Humidity;BMP_temperature;BMP_pressure;BME280_temperature;BME280_humidity;BME280_pressure;Samples;Min_cycle;Max_cycle;Signal;HPM_P1;HPM_P2
2021/07/23 00:35:34;;;;;;;13.60;12.40;;;20.60;90.60;;;;;;6188146;23;20760;-85
2021/07/23 00:45:57;;;;;;;15.60;14.00;;;20.50;91.10;;;;;;5873659;24;20794;-86
2021/07/23 00:49:31;;;;;;;15.87;12.67;;;20.60;91.30;;;;;;5929431;24;20420;-86
2021/07/23 02:28:58;;;;;;;15.00;13.50;;;19.80;95.90;;;;;;5868583;23;20889;-83
2021/07/23 02:31:25;;;;;;;16.80;12.83;;;19.80;96.10;;;;;;6114717;23;20682;-83
2021/07/23 02:33:52;;;;;;;14.53;13.13;;;19.90;96.20;;;;;;6163449;23;20465;-84
2021/07/23 02:36:19;;;;;;;14.90;13.50;;;19.80;96.50;;;;;;6163572;23;20455;-84
2021/07/23 02:38:46;;;;;;;14.70;13.10;;;19.80;96.70;;;;;;6163240;23;20431;-84
2021/07/23 02:41:12;;;;;;;18.10;13.87;;;19.70;97.10;;;;;;6164691;23;20403;-84
2021/07/23 02:43:40;;;;;;;15.17;12.27;;;19.70;97.40;;;;;;6165099;23;20432;-83
2021/07/23 02:46:10;;;;;;;15.67;13.60;;;19.70;97.70;;;;;;6159924;23;20439;-83
2021/07/23 02:48:37;;;;;;;13.30;12.00;;;19.60;97.90;;;;;;6159481;23;20400;-81
2021/07/23 02:51:03;;;;;;;14.40;11.90;;;19.50;98.20;;;;;;6159938;23;20467;-82
2021/07/23 02:53:30;;;;;;;15.13;13.50;;;19.50;98.50;;;;;;6157863;23;20428;-82
2021/07/23 02:55:57;;;;;;;15.63;13.90;;;19.40;99.00;;;;;;6169195;23;20430;-83
2021/07/23 02:58:23;;;;;;;14.60;13.10;;;19.40;99.50;;;;;;6176871;23;20428;-83
2021/07/23 03:00:50;;;;;;;16.00;14.47;;;19.30;99.70;;;;;;6168574;23;20408;-82
2021/07/23 03:03:18;;;;;;;13.53;12.13;;;19.20;99.90;;;;;;6181229;22;20470;-89
2021/07/23 03:05:47;;;;;;;17.10;14.57;;;19.20;99.90;;;;;;6217478;23;20410;-90
2021/07/23 03:08:14;;;;;;;15.67;14.07;;;19.20;99.90;;;;;;6219767;23;20441;-89
2021/07/23 03:10:41;;;;;;;15.93;14.27;;;19.10;99.90;;;;;;6237402;23;20391;-90
2021/07/23 03:13:08;;;;;;;16.93;15.17;;;19.10;99.90;;;;;;6222330;23;20541;-89
2021/07/23 03:15:35;;;;;;;18.77;16.20;;;19.10;99.90;;;;;;6209346;23;20410;-89
2021/07/23 03:18:03;;;;;;;19.50;17.37;;;19.00;99.90;;;;;;6196874;23;20428;-89
2021/07/23 03:20:32;;;;;;;20.30;18.20;;;18.90;99.90;;;;;;6204830;23;20424;-91
2021/07/23 03:22:59;;;;;;;23.00;17.73;;;18.90;99.90;;;;;;6198437;23;20432;-90
2021/07/23 03:25:26;;;;;;;20.63;18.37;;;18.80;99.90;;;;;;6191354;23;20812;-90
2021/07/23 03:27:53;;;;;;;20.97;17.30;;;18.70;99.90;;;;;;6191152;23;20419;-90
2021/07/23 03:30:20;;;;;;;22.53;20.03;;;18.70;99.90;;;;;;6190687;23;20439;-92
2021/07/23 03:32:47;;;;;;;25.17;22.50;;;18.70;99.90;;;;;;6190562;23;20450;-90
2021/07/23 03:35:15;;;;;;;24.40;20.80;;;18.70;99.90;;;;;;6189245;23;20410;-89
2021/07/23 03:37:44;;;;;;;22.10;19.80;;;18.70;99.90;;;;;;6190152;23;20480;-89
2021/07/23 03:40:11;;;;;;;27.40;20.10;;;18.70;99.90;;;;;;6189896;23;20400;-89
2021/07/23 03:42:38;;;;;;;21.60;19.03;;;18.60;99.90;;;;;;6188774;23;20428;-90
2021/07/23 03:45:06;;;;;;;21.20;18.97;;;18.50;99.90;;;;;;6189873;23;20413;-90
2021/07/23 03:47:33;;;;;;;22.90;19.60;;;18.40;99.90;;;;;;6187974;23;20417;-89
2021/07/23 03:50:00;;;;;;;23.40;19.87;;;18.40;99.90;;;;;;6188653;23;20440;-90
2021/07/23 03:52:27;;;;;;;21.17;18.80;;;18.40;99.90;;;;;;6188222;23;20532;-90
2021/07/23 03:54:55;;;;;;;21.93;18.67;;;18.40;99.90;;;;;;6187141;23;20812;-90
2021/07/23 03:57:22;;;;;;;21.93;18.80;;;18.40;99.90;;;;;;6184040;23;20421;-90
2021/07/23 03:59:49;;;;;;;22.63;20.20;;;18.40;99.90;;;;;;6193808;23;20400;-89
2021/07/23 04:02:16;;;;;;;24.07;20.10;;;18.40;99.90;;;;;;6191975;23;20405;-89
2021/07/23 04:04:44;;;;;;;24.27;19.90;;;18.40;99.90;;;;;;6190635;23;20410;-89
2021/07/23 04:07:11;;;;;;;21.57;19.23;;;18.30;99.90;;;;;;6200539;23;20412;-90
2021/07/23 04:09:37;;;;;;;23.63;21.10;;;18.30;99.90;;;;;;6189654;23;20406;-90
2021/07/23 04:12:06;;;;;;;23.40;19.97;;;18.30;99.90;;;;;;6189938;23;20501;-90
2021/07/23 04:14:33;;;;;;;23.17;20.00;;;18.30;99.90;;;;;;6187353;23;20413;-90
2021/07/23 04:17:00;;;;;;;27.40;21.83;;;18.40;99.90;;;;;;6198683;23;20386;-89
2021/07/23 04:19:27;;;;;;;21.83;19.20;;;18.40;99.90;;;;;;6198120;23;20410;-90
2021/07/23 04:21:53;;;;;;;26.33;23.50;;;18.40;99.90;;;;;;6191788;23;20402;-89
2021/07/23 04:24:20;;;;;;;26.03;23.30;;;18.30;99.90;;;;;;6213400;23;20493;-91
2021/07/23 04:26:48;;;;;;;24.07;21.43;;;18.30;99.90;;;;;;6212914;23;20406;-87
2021/07/23 04:29:16;;;;;;;25.80;22.10;;;18.30;99.90;;;;;;6214211;23;20394;-91
2021/07/23 04:31:47;;;;;;;27.70;22.10;;;18.30;99.90;;;;;;6215122;23;20482;-92
2021/07/23 04:34:14;;;;;;;26.07;20.97;;;18.30;99.90;;;;;;6214716;23;20441;-93
2021/07/23 04:36:47;;;;;;;26.23;21.13;;;18.30;99.90;;;;;;6214494;23;20409;-92
2021/07/23 04:39:15;;;;;;;27.07;20.23;;;18.40;99.90;;;;;;6212383;23;20415;-91
2021/07/23 04:41:48;;;;;;;26.87;20.80;;;18.40;99.90;;;;;;6212955;23;20410;-91
2021/07/23 04:44:16;;;;;;;37.33;24.60;;;18.40;99.90;;;;;;6214073;23;20419;-93
2021/07/23 04:46:45;;;;;;;24.93;22.10;;;18.40;99.90;;;;;;6212340;23;20390;-92
2021/07/23 04:49:12;;;;;;;27.77;21.60;;;18.50;99.90;;;;;;6208584;23;20447;-93
2021/07/23 04:51:58;;;;;;;25.30;19.80;;;18.50;99.90;;;;;;6199365;23;20472;-93
2021/07/23 04:54:29;;;;;;;30.10;22.43;;;18.60;99.90;;;;;;6199017;23;20911;-92
2021/07/23 04:56:56;;;;;;;26.27;21.27;;;18.60;99.90;;;;;;6200084;23;20402;-92
2021/07/23 04:59:27;;;;;;;25.60;21.00;;;18.60;99.90;;;;;;6200463;23;20458;-92
2021/07/23 05:05:00;;;;;;;31.60;23.20;;;18.70;99.90;;;;;;6205323;23;20418;-92
2021/07/23 05:07:31;;;;;;;35.23;22.77;;;18.80;99.90;;;;;;6205775;23;20382;-92
2021/07/23 05:10:03;;;;;;;27.00;23.70;;;18.80;99.90;;;;;;6201033;23;20468;-91
2021/07/23 05:12:36;;;;;;;28.00;23.53;;;18.90;99.90;;;;;;6198906;23;20430;-91
2021/07/23 05:15:23;;;;;;;26.77;23.90;;;18.90;99.90;;;;;;6195911;23;20407;-91
2021/07/23 05:18:04;;;;;;;26.37;23.73;;;19.00;99.90;;;;;;6193954;23;20412;-92
2021/07/23 05:20:35;;;;;;;24.77;22.13;;;19.30;99.90;;;;;;6193504;23;20904;-91
2021/07/23 05:25:53;;;;;;;27.10;22.20;;;20.30;99.90;;;;;;6157938;23;20419;-92
2021/07/23 05:28:21;;;;;;;21.33;19.33;;;20.70;99.90;;;;;;6199108;23;20403;-93
2021/07/23 05:31:16;;;;;;;23.17;20.77;;;21.30;99.90;;;;;;6192921;23;20397;-92
2021/07/23 05:33:49;;;;;;;22.53;20.20;;;21.60;99.90;;;;;;6201832;23;20472;-91
2021/07/23 05:36:25;;;;;;;23.80;21.30;;;22.10;99.90;;;;;;6200077;23;20400;-92
2021/07/23 05:39:01;;;;;;;24.80;22.20;;;22.50;99.90;;;;;;6196529;23;20421;-92
2021/07/23 05:41:34;;;;;;;26.87;22.00;;;22.60;98.70;;;;;;6195867;23;20485;-91
2021/07/23 05:44:09;;;;;;;29.37;21.80;;;22.70;98.30;;;;;;6194299;23;20435;-92
2021/07/23 05:46:38;;;;;;;24.73;22.10;;;22.90;97.80;;;;;;6195900;23;20454;-93
2021/07/23 05:49:06;;;;;;;24.77;20.73;;;23.20;96.90;;;;;;6202415;23;20416;-92
2021/07/23 05:51:36;;;;;;;25.40;22.50;;;23.40;96.20;;;;;;6195475;23;20413;-93
2021/07/23 05:54:03;;;;;;;24.60;22.17;;;23.60;95.70;;;;;;6195937;23;20426;-92
2021/07/23 05:56:32;;;;;;;26.70;22.50;;;23.90;95.10;;;;;;6202849;23;20885;-92
2021/07/23 05:59:01;;;;;;;90.40;37.90;;;24.30;94.20;;;;;;6200752;23;20398;-92
2021/07/23 06:01:30;;;;;;;23.33;20.83;;;24.70;93.10;;;;;;6203658;23;20398;-94
2021/07/23 06:04:00;;;;;;;22.67;20.47;;;25.00;91.70;;;;;;6192199;23;20487;-93
2021/07/23 06:06:27;;;;;;;24.83;22.20;;;25.30;91.00;;;;;;6192655;23;20374;-93
2021/07/23 06:08:54;;;;;;;23.50;21.10;;;25.60;90.60;;;;;;6191034;23;20555;-92
2021/07/23 06:11:21;;;;;;;23.80;21.70;;;25.90;89.30;;;;;;6193616;23;20410;-91
2021/07/23 06:13:51;;;;;;;23.50;21.20;;;26.20;88.40;;;;;;6196664;23;20442;-92
2021/07/23 06:16:24;;;;;;;23.30;21.30;;;26.50;86.10;;;;;;6189656;23;20441;-92
2021/07/23 06:18:53;;;;;;;23.17;20.90;;;26.80;84.60;;;;;;6194386;23;20390;-92
2021/07/23 06:21:23;;;;;;;24.90;22.50;;;27.00;83.40;;;;;;6192852;23;20414;-92
2021/07/23 06:23:56;;;;;;;24.97;22.30;;;27.20;82.10;;;;;;6192176;23;20424;-92
2021/07/23 06:26:24;;;;;;;25.23;22.63;;;27.50;81.00;;;;;;6202535;23;20419;-93
2021/07/23 06:28:52;;;;;;;24.47;21.70;;;27.60;79.90;;;;;;6193186;23;20964;-93
2021/07/23 06:31:18;;;;;;;25.20;22.50;;;27.30;78.90;;;;;;6195504;23;20400;-92
2021/07/23 06:33:45;;;;;;;22.60;20.20;;;27.50;79.60;;;;;;6213079;23;20484;-93
2021/07/23 06:36:12;;;;;;;22.20;20.20;;;27.70;79.00;;;;;;6199244;23;20412;-93
2021/07/23 06:38:41;;;;;;;23.53;21.27;;;28.10;77.10;;;;;;6204246;23;20442;-93
2021/07/23 06:41:08;;;;;;;24.43;21.87;;;28.10;75.10;;;;;;6195607;23;20409;-93
2021/07/23 06:43:35;;;;;;;24.07;21.53;;;28.40;74.20;;;;;;6190908;23;20432;-92
2021/07/23 06:46:02;;;;;;;23.00;20.70;;;28.70;71.70;;;;;;6204756;23;20454;-92
2021/07/23 06:48:29;;;;;;;20.70;18.57;;;28.80;71.60;;;;;;6201030;23;20392;-92
2021/07/23 06:50:56;;;;;;;22.77;20.43;;;29.00;69.60;;;;;;6196459;23;20408;-92
2021/07/23 06:53:23;;;;;;;21.77;19.77;;;28.80;69.50;;;;;;6200515;23;20442;-92
2021/07/23 06:55:51;;;;;;;21.03;19.30;;;29.00;69.00;;;;;;6196476;23;20412;-91
2021/07/23 06:58:18;;;;;;;20.53;18.43;;;29.20;68.50;;;;;;6202018;23;20474;-93
2021/07/23 07:00:45;;;;;;;21.57;19.57;;;29.70;67.60;;;;;;6201900;23;20406;-92
2021/07/23 07:03:12;;;;;;;22.40;20.20;;;29.90;65.90;;;;;;6198915;23;20468;-91
2021/07/23 07:05:39;;;;;;;21.90;19.90;;;29.80;66.20;;;;;;6201966;23;20473;-92
2021/07/23 07:08:08;;;;;;;23.03;21.00;;;29.60;65.10;;;;;;6211215;23;20405;-92
2021/07/23 07:10:35;;;;;;;20.67;18.80;;;30.10;64.40;;;;;;6207456;23;20402;-93
2021/07/23 07:13:04;;;;;;;22.30;20.10;;;30.40;63.90;;;;;;6209794;23;20493;-94
2021/07/23 07:15:31;;;;;;;20.47;18.43;;;30.80;62.10;;;;;;6207372;23;20461;-92
2021/07/23 07:17:58;;;;;;;22.80;20.37;;;31.30;60.60;;;;;;6196561;23;20747;-92
2021/07/23 07:20:25;;;;;;;23.13;20.90;;;31.50;59.50;;;;;;6193192;23;20815;-93
2021/07/23 07:22:53;;;;;;;22.23;20.00;;;31.50;58.60;;;;;;6190390;23;20433;-91
2021/07/23 07:25:20;;;;;;;22.70;19.77;;;31.70;58.70;;;;;;6191733;23;20409;-91
2021/07/23 07:27:46;;;;;;;24.07;21.83;;;32.10;57.90;;;;;;6196517;23;20946;-92
2021/07/23 07:30:17;;;;;;;24.10;22.00;;;31.80;57.80;;;;;;6204669;23;20413;-92
2021/07/23 07:32:44;;;;;;;23.13;20.90;;;31.60;58.10;;;;;;6197671;23;20453;-92
2021/07/23 07:35:12;;;;;;;23.60;21.33;;;31.20;58.50;;;;;;6192621;23;20485;-93
2021/07/23 07:37:41;;;;;;;22.27;19.93;;;30.50;59.90;;;;;;6195718;23;20457;-93
2021/07/23 07:40:09;;;;;;;21.70;19.70;;;31.30;59.30;;;;;;6196555;23;20489;-92
2021/07/23 07:42:36;;;;;;;20.60;18.70;;;32.20;57.60;;;;;;6199304;23;20944;-93
2021/07/23 07:45:05;;;;;;;27.40;20.80;;;32.00;56.40;;;;;;6189993;23;20414;-92
2021/07/23 07:47:33;;;;;;;19.73;18.00;;;31.00;57.50;;;;;;6190003;23;20444;-92
2021/07/23 07:50:00;;;;;;;23.30;18.07;;;31.30;58.10;;;;;;6202798;23;20404;-93
2021/07/23 07:52:27;;;;;;;20.40;18.60;;;31.90;56.40;;;;;;6194665;23;20481;-92
2021/07/23 07:54:54;;;;;;;19.37;17.40;;;32.90;55.50;;;;;;6189739;23;20479;-92
2021/07/23 07:57:22;;;;;;;19.67;17.70;;;33.70;53.60;;;;;;6195890;23;20404;-93
2021/07/23 07:59:50;;;;;;;19.03;17.37;;;33.80;52.00;;;;;;6205885;23;20418;-93
2021/07/23 08:02:17;;;;;;;19.50;17.50;;;33.00;53.10;;;;;;6192962;23;20402;-92
2021/07/23 08:04:45;;;;;;;17.77;16.10;;;33.30;52.50;;;;;;6201071;23;20413;-93
2021/07/23 08:07:18;;;;;;;20.07;18.27;;;33.70;51.30;;;;;;6191952;23;20405;-92
2021/07/23 08:09:51;;;;;;;20.90;17.80;;;33.10;51.50;;;;;;6192790;23;20413;-92
2021/07/23 08:12:17;;;;;;;18.83;17.13;;;33.10;51.90;;;;;;6196043;23;20424;-93
2021/07/23 08:14:44;;;;;;;20.30;18.60;;;34.00;51.70;;;;;;6197757;23;20406;-92
2021/07/23 08:17:11;;;;;;;17.87;16.27;;;34.60;50.20;;;;;;6195511;23;20402;-92
2021/07/23 08:19:38;;;;;;;16.60;15.20;;;34.90;48.80;;;;;;6194522;23;20414;-93
2021/07/23 08:22:07;;;;;;;16.70;15.30;;;35.30;47.60;;;;;;6194235;23;20412;-92
2021/07/23 08:24:34;;;;;;;17.07;15.57;;;35.80;47.50;;;;;;6193297;23;20402;-92
2021/07/23 08:27:01;;;;;;;17.60;16.20;;;36.30;45.90;;;;;;6191426;23;20393;-93
2021/07/23 08:29:27;;;;;;;17.40;15.77;;;36.50;45.10;;;;;;6189799;23;20420;-91
2021/07/23 08:31:54;;;;;;;16.20;14.80;;;36.70;45.00;;;;;;6191892;23;20737;-90
2021/07/23 08:34:22;;;;;;;18.10;16.40;;;36.40;44.60;;;;;;6196197;23;20452;-92
2021/07/23 08:36:49;;;;;;;16.37;14.97;;;35.80;45.90;;;;;;6192493;23;20432;-92
2021/07/23 08:39:17;;;;;;;19.07;17.37;;;35.40;46.50;;;;;;6197143;23;20402;-92
2021/07/23 08:41:43;;;;;;;16.90;15.50;;;35.60;46.30;;;;;;6212920;23;20394;-93
2021/07/23 08:44:15;;;;;;;16.13;14.77;;;36.70;46.00;;;;;;6195988;23;20457;-92
2021/07/23 08:46:42;;;;;;;16.23;14.83;;;37.10;44.70;;;;;;6202706;23;20358;-92
2021/07/23 08:49:09;;;;;;;16.67;15.33;;;37.60;43.60;;;;;;6204900;23;20418;-92
2021/07/23 08:51:36;;;;;;;15.90;14.50;;;37.90;43.00;;;;;;6199610;23;20405;-91
2021/07/23 08:54:06;;;;;;;15.63;14.27;;;37.90;42.40;;;;;;6194258;23;20432;-92
2021/07/23 08:56:34;;;;;;;14.70;13.47;;;38.00;42.40;;;;;;6191828;23;20437;-92
2021/07/23 08:59:01;;;;;;;15.47;14.17;;;38.20;42.10;;;;;;6194732;23;20405;-91
2021/07/23 09:01:28;;;;;;;16.40;15.10;;;38.70;41.00;;;;;;6210064;23;20477;-94
2021/07/23 09:03:55;;;;;;;15.83;14.50;;;38.20;41.70;;;;;;6192830;23;20756;-84
2021/07/23 09:06:23;;;;;;;16.13;14.73;;;38.70;41.20;;;;;;6191812;23;20775;-84
2021/07/23 09:08:50;;;;;;;14.83;13.73;;;38.10;41.60;;;;;;6191349;23;20406;-84
2021/07/23 09:11:27;;;;;;;15.53;14.20;;;39.10;40.60;;;;;;6193486;23;20943;-85
2021/07/23 09:14:10;;;;;;;15.30;13.90;;;39.20;39.90;;;;;;6196594;23;20429;-85
2021/07/23 09:16:37;;;;;;;16.00;14.80;;;40.10;38.80;;;;;;6197425;23;20406;-84
2021/07/23 09:19:07;;;;;;;15.50;14.03;;;39.70;39.00;;;;;;6198861;23;20426;-85
2021/07/23 09:21:37;;;;;;;13.90;12.63;;;40.10;38.30;;;;;;6196010;23;20394;-85
2021/07/23 09:24:04;;;;;;;15.70;14.10;;;40.20;38.00;;;;;;6194555;23;20446;-85
2021/07/23 09:26:41;;;;;;;15.10;13.80;;;40.20;37.90;;;;;;6194018;23;20410;-85
2021/07/23 09:29:09;;;;;;;15.83;14.50;;;41.00;37.20;;;;;;6191526;23;20869;-85
2021/07/23 09:31:36;;;;;;;13.57;12.57;;;41.20;36.80;;;;;;6193125;23;20406;-84
2021/07/23 09:34:05;;;;;;;13.70;12.60;;;42.00;36.10;;;;;;6192463;23;20434;-85
2021/07/23 09:36:33;;;;;;;14.20;13.00;;;42.90;35.00;;;;;;6192529;23;20486;-85
2021/07/23 09:39:04;;;;;;;14.60;13.40;;;42.50;34.40;;;;;;6193122;23;20756;-85
2021/07/23 09:41:32;;;;;;;14.30;13.07;;;43.10;33.90;;;;;;6196669;23;20402;-84
2021/07/23 09:44:01;;;;;;;12.40;11.50;;;43.00;33.30;;;;;;6196401;23;20442;-85
2021/07/23 09:46:35;;;;;;;13.20;12.00;;;42.90;35.10;;;;;;6197645;23;20410;-84
2021/07/23 09:49:20;;;;;;;12.27;11.17;;;42.60;33.60;;;;;;6198148;23;20421;-85
2021/07/23 09:51:47;;;;;;;15.70;12.03;;;42.00;33.20;;;;;;6196535;23;20422;-85
2021/07/23 09:54:14;;;;;;;14.10;11.30;;;39.50;35.50;;;;;;6196920;23;20940;-85
2021/07/23 09:56:42;;;;;;;11.13;10.33;;;39.50;36.30;;;;;;6193911;23;20468;-85
2021/07/23 09:59:12;;;;;;;10.77;9.87;;;39.60;35.80;;;;;;6196599;23;20805;-85
2021/07/23 10:01:42;;;;;;;11.83;10.63;;;39.20;35.80;;;;;;6196291;23;20426;-84
2021/07/23 10:04:15;;;;;;;12.00;11.00;;;38.50;36.60;;;;;;6193235;23;20513;-85
2021/07/23 10:06:49;;;;;;;11.77;10.87;;;39.20;35.90;;;;;;6193702;23;20386;-85
2021/07/23 10:09:18;;;;;;;12.97;11.37;;;40.30;34.40;;;;;;6194190;23;20472;-83
2021/07/23 10:11:46;;;;;;;12.20;11.40;;;40.60;34.20;;;;;;6194192;23;20413;-84
2021/07/23 10:14:19;;;;;;;11.00;10.20;;;41.40;33.70;;;;;;6198839;23;20490;-84
2021/07/23 10:16:48;;;;;;;12.10;11.03;;;43.00;32.10;;;;;;6197498;23;20386;-85
2021/07/23 10:19:15;;;;;;;11.47;10.57;;;43.50;30.40;;;;;;6191205;23;20402;-84
2021/07/23 10:21:42;;;;;;;12.30;11.30;;;44.20;30.10;;;;;;6189416;23;20403;-85
2021/07/23 10:24:10;;;;;;;11.20;10.37;;;44.90;29.50;;;;;;6193867;23;20453;-84
2021/07/23 10:26:37;;;;;;;13.13;12.13;;;44.70;28.80;;;;;;6205205;23;20402;-84
2021/07/23 10:29:05;;;;;;;11.60;10.63;;;44.00;29.40;;;;;;6196035;23;20456;-84
2021/07/23 10:31:42;;;;;;;12.50;11.60;;;41.60;31.80;;;;;;6195148;23;20796;-85
2021/07/23 10:34:11;;;;;;;11.83;10.97;;;41.90;32.30;;;;;;6195974;23;20437;-86
2021/07/23 10:36:42;;;;;;;11.73;10.93;;;41.30;32.10;;;;;;6213284;23;20389;-84
2021/07/23 10:39:17;;;;;;;13.30;12.30;;;41.80;32.20;;;;;;6198361;23;20912;-85
2021/07/23 10:42:26;;;;;;;12.40;11.30;;;40.70;33.20;;;;;;6206169;23;20366;-85
2021/07/23 10:44:53;;;;;;;11.80;10.73;;;40.50;33.80;;;;;;6197903;23;20428;-85
2021/07/23 10:47:47;;;;;;;11.03;10.13;;;41.10;33.30;;;;;;6197095;23;20401;-85
2021/07/23 10:50:49;;;;;;;11.70;10.70;;;42.80;32.10;;;;;;6193639;23;20406;-84
2021/07/23 10:53:34;;;;;;;11.33;10.33;;;43.90;29.90;;;;;;6192395;23;20766;-83
2021/07/23 10:56:01;;;;;;;12.00;11.10;;;44.30;30.10;;;;;;6194074;23;20386;-84
2021/07/23 10:58:32;;;;;;;11.83;10.70;;;45.40;28.70;;;;;;6199701;23;20430;-84
2021/07/23 11:01:01;;;;;;;12.00;11.10;;;45.70;28.10;;;;;;6211610;23;20374;-85
2021/07/23 11:03:46;;;;;;;13.33;12.33;;;45.60;28.20;;;;;;6206502;23;20457;-85
2021/07/23 11:06:20;;;;;;;12.40;11.57;;;46.00;28.50;;;;;;6209350;23;20414;-85
2021/07/23 11:08:52;;;;;;;12.50;11.63;;;45.80;28.40;;;;;;6197127;23;20424;-85
2021/07/23 11:11:19;;;;;;;12.50;11.60;;;43.70;29.70;;;;;;6194240;23;20406;-84
2021/07/23 11:13:47;;;;;;;12.67;11.57;;;40.00;33.60;;;;;;6195420;23;20449;-84
2021/07/23 11:16:14;;;;;;;13.23;12.13;;;39.50;35.30;;;;;;6194715;23;20406;-83
2021/07/23 11:18:55;;;;;;;14.23;11.87;;;39.80;35.10;;;;;;6199239;23;20528;-84
2021/07/23 11:21:25;;;;;;;14.50;12.07;;;41.90;33.90;;;;;;6194372;23;20397;-84
2021/07/23 11:23:52;;;;;;;13.90;12.67;;;42.60;31.90;;;;;;6190023;23;20451;-85
2021/07/23 11:26:24;;;;;;;13.20;12.20;;;41.80;32.30;;;;;;6189706;23;20419;-84
2021/07/23 11:28:53;;;;;;;13.33;12.33;;;40.60;33.40;;;;;;6193381;23;20391;-83
2021/07/23 11:31:33;;;;;;;14.37;12.97;;;40.20;34.90;;;;;;6194311;23;20416;-83
2021/07/23 11:34:01;;;;;;;12.37;11.40;;;39.80;35.00;;;;;;6192841;23;20446;-83
2021/07/23 11:36:37;;;;;;;13.40;12.47;;;39.80;34.90;;;;;;6192647;23;20406;-83
2021/07/23 11:39:05;;;;;;;12.90;11.90;;;40.10;35.30;;;;;;6195189;23;20405;-83
2021/07/23 11:41:31;;;;;;;12.93;11.93;;;40.60;34.30;;;;;;6197972;23;20406;-83
2021/07/23 11:44:09;;;;;;;13.50;12.50;;;40.20;33.50;;;;;;6196605;23;20448;-83
2021/07/23 11:46:37;;;;;;;12.87;11.77;;;39.80;34.30;;;;;;6196449;23;20409;-85
2021/07/23 11:49:05;;;;;;;13.47;12.47;;;39.20;34.80;;;;;;6198187;23;20405;-83
2021/07/23 11:51:44;;;;;;;13.83;12.57;;;39.40;35.30;;;;;;6199355;23;20424;-84
2021/07/23 11:54:11;;;;;;;13.27;12.07;;;40.10;34.60;;;;;;6200255;23;20418;-83
2021/07/23 11:56:38;;;;;;;15.13;13.97;;;40.40;33.30;;;;;;6200609;23;20406;-83
2021/07/23 11:59:10;;;;;;;13.30;12.20;;;39.50;34.30;;;;;;6192768;23;20413;-87
2021/07/23 12:01:40;;;;;;;13.67;12.57;;;38.40;35.10;;;;;;6192321;23;20406;-86
2021/07/23 12:04:09;;;;;;;13.50;12.43;;;38.50;35.70;;;;;;6190645;23;20472;-86
2021/07/23 12:06:39;;;;;;;12.13;11.10;;;39.20;34.90;;;;;;6191896;23;20484;-87
2021/07/23 12:09:11;;;;;;;13.80;12.47;;;40.50;33.20;;;;;;6199924;23;20417;-85
2021/07/23 12:11:40;;;;;;;13.83;12.53;;;42.10;31.80;;;;;;6198411;23;20406;-86
2021/07/23 12:14:10;;;;;;;13.33;12.40;;;43.00;30.50;;;;;;6193064;23;20429;-88
2021/07/23 12:58:42;;;;;;;12.20;11.30;;;43.80;28.60;;;;;;6156659;23;20551;-88
2021/07/23 13:18:28;;;;;;;11.97;11.07;;;43.50;28.50;;;;;;5789975;24;20437;-87
2021/07/23 13:20:59;;;;;;;14.83;13.73;;;44.00;28.00;;;;;;6010994;23;20977;-87
2021/07/23 13:23:28;;;;;;;13.67;12.47;;;42.50;28.30;;;;;;6039582;23;20438;-87
2021/07/23 13:25:58;;;;;;;12.73;11.53;;;41.40;29.90;;;;;;6098077;23;20447;-87
2021/07/23 13:28:26;;;;;;;13.50;12.40;;;41.70;29.60;;;;;;6171923;23;20401;-86
2021/07/23 14:40:38;;;;;;;13.40;12.10;;;36.50;35.50;;;;;;5954651;24;20469;-87
2021/07/23 15:07:05;;;;;;;12.43;11.23;;;32.50;41.90;;;;;;6195217;23;20479;-92
2021/07/23 15:09:48;;;;;;;13.40;11.37;;;32.30;42.60;;;;;;6199500;23;20429;-92
2021/07/23 15:12:55;;;;;;;13.83;12.43;;;32.10;41.70;;;;;;6203355;23;20414;-92
2021/07/23 15:15:35;;;;;;;14.03;12.73;;;31.70;42.30;;;;;;6201474;23;20467;-94
2021/07/23 15:21:36;;;;;;;;;;;;;;;;;;;;;
2021/07/23 15:33:54;;;;;;;13.00;11.83;;;32.00;43.20;;;;;;6157061;23;20426;-93
2021/07/23 15:36:44;;;;;;;13.03;11.80;;;31.80;43.10;;;;;;6164875;23;20497;-93
2021/07/23 15:42:15;;;;;;;13.77;12.40;;;31.70;43.80;;;;;;6167999;23;20406;-94
2021/07/23 15:48:39;;;;;;;16.43;11.67;;;31.60;43.80;;;;;;6116465;23;20418;-94
2021/07/23 15:58:09;;;;;;;13.03;11.93;;;31.60;44.10;;;;;;6176061;23;20409;-93
2021/07/23 16:06:39;;;;;;;13.73;12.63;;;31.20;46.10;;;;;;6105683;23;20456;-93
2021/07/23 16:09:18;;;;;;;13.40;12.10;;;31.20;45.00;;;;;;6110320;23;20432;-93
2021/07/23 16:12:38;;;;;;;12.60;11.50;;;31.20;45.40;;;;;;6158044;23;20425;-92
2021/07/23 16:15:41;;;;;;;12.17;11.17;;;31.20;45.20;;;;;;6183058;23;20414;-92
2021/07/23 16:21:14;;;;;;;13.50;12.23;;;31.20;45.60;;;;;;6193101;23;20426;-94
2021/07/23 16:23:53;;;;;;;13.53;12.33;;;31.10;45.10;;;;;;6208274;23;20685;-94
2021/07/23 16:26:53;;;;;;;12.23;11.07;;;31.00;44.60;;;;;;6202266;23;20437;-93
2021/07/23 16:35:16;;;;;;;12.70;11.60;;;30.80;45.20;;;;;;6196778;23;20422;-93
2021/07/23 16:40:50;;;;;;;13.97;12.57;;;30.80;45.40;;;;;;6164774;23;20414;-94
2021/07/23 16:46:34;;;;;;;13.40;12.20;;;30.70;46.50;;;;;;6161970;23;20451;-93
2021/07/23 16:55:23;;;;;;;13.27;11.97;;;30.20;46.40;;;;;;6168300;23;20446;-94
2021/07/23 16:58:22;;;;;;;13.80;12.47;;;30.10;47.20;;;;;;6183377;23;20387;-92
2021/07/23 17:01:22;;;;;;;12.23;11.03;;;30.00;47.70;;;;;;6172873;23;20483;-94
2021/07/23 17:17:39;;;;;;;13.20;12.00;;;29.60;49.40;;;;;;6106844;23;20454;-94
2021/07/23 17:24:03;;;;;;;14.37;12.87;;;29.60;49.50;;;;;;6079732;23;20462;-93
2021/07/23 17:26:44;;;;;;;13.30;12.00;;;29.60;49.00;;;;;;6093267;23;20443;-93
2021/07/23 17:32:25;;;;;;;13.80;12.50;;;29.40;49.40;;;;;;6116844;23;20552;-92
2021/07/23 17:35:44;;;;;;;11.60;10.40;;;29.30;49.60;;;;;;6102515;23;20516;-90
2021/07/23 17:38:43;;;;;;;11.23;10.07;;;29.20;52.50;;;;;;6086954;23;20416;-90
2021/07/23 17:42:08;;;;;;;11.37;10.37;;;29.00;52.70;;;;;;6168619;23;20410;-92
2021/07/23 17:45:27;;;;;;;12.50;11.40;;;28.90;52.30;;;;;;6102256;23;20448;-93
2021/07/23 17:48:20;;;;;;;14.33;12.23;;;28.90;53.30;;;;;;6011091;23;20410;-93
2021/07/23 18:05:49;;;;;;;13.13;11.93;;;28.60;52.70;;;;;;6178759;23;20434;-92
2021/07/23 18:22:28;;;;;;;11.93;10.93;;;28.20;53.40;;;;;;6068065;23;20403;-91
2021/07/23 18:25:36;;;;;;;13.17;11.90;;;28.20;53.40;;;;;;6130006;23;20427;-90
2021/07/23 18:28:09;;;;;;;13.37;12.17;;;28.10;54.00;;;;;;6164864;23;20458;-91
2021/07/23 18:31:09;;;;;;;13.20;12.00;;;28.10;54.10;;;;;;6162138;23;20393;-91
2021/07/23 18:33:52;;;;;;;12.50;11.40;;;27.90;54.40;;;;;;6168885;23;20443;-91
2021/07/23 18:37:06;;;;;;;17.33;13.47;;;27.80;54.50;;;;;;6166272;23;20473;-91
2021/07/23 18:39:50;;;;;;;12.80;11.67;;;27.80;54.20;;;;;;6070578;23;20759;-90
2021/07/23 18:42:20;;;;;;;13.60;12.30;;;27.70;54.80;;;;;;6087855;23;20446;-90
2021/07/23 18:45:11;;;;;;;13.57;12.27;;;27.60;55.50;;;;;;6159072;23;20466;-90
2021/07/23 18:47:46;;;;;;;14.77;13.27;;;27.50;55.10;;;;;;6161559;23;20837;-90
2021/07/23 18:50:14;;;;;;;14.00;12.70;;;27.50;55.30;;;;;;6160439;23;20425;-91
2021/07/23 18:52:48;;;;;;;14.10;12.60;;;27.40;55.20;;;;;;6162853;23;20429;-90
2021/07/23 18:55:17;;;;;;;13.07;11.77;;;27.50;55.20;;;;;;6178827;23;20434;-90
2021/07/23 18:57:47;;;;;;;12.83;11.63;;;27.40;55.80;;;;;;6175866;23;20403;-90
2021/07/23 19:00:26;;;;;;;15.07;13.70;;;27.30;56.20;;;;;;6173237;23;20401;-90
2021/07/23 19:03:08;;;;;;;14.50;13.10;;;27.30;56.60;;;;;;6180835;23;20385;-90
2021/07/23 19:05:42;;;;;;;13.93;12.57;;;27.20;56.60;;;;;;6181200;23;20445;-91
2021/07/23 19:08:16;;;;;;;15.20;13.00;;;27.10;56.40;;;;;;6166465;23;20393;-90
2021/07/23 19:10:46;;;;;;;14.27;12.87;;;27.10;56.80;;;;;;6159924;23;20507;-90
2021/07/23 19:13:23;;;;;;;14.20;12.63;;;27.00;57.10;;;;;;6163229;23;20403;-90
2021/07/23 19:15:52;;;;;;;15.07;13.57;;;26.90;57.20;;;;;;6167271;23;20389;-91
2021/07/23 19:18:19;;;;;;;12.67;11.47;;;26.90;57.20;;;;;;6179184;23;20466;-92
2021/07/23 19:21:02;;;;;;;13.80;12.50;;;26.80;57.30;;;;;;6172501;23;20416;-90
2021/07/23 19:23:40;;;;;;;13.40;12.10;;;26.80;57.60;;;;;;6195551;23;20411;-91
2021/07/23 19:26:16;;;;;;;14.97;12.97;;;26.80;57.70;;;;;;6190294;23;20433;-92
2021/07/23 19:28:43;;;;;;;13.60;12.30;;;26.80;58.00;;;;;;6189777;23;20415;-91
2021/07/23 19:31:10;;;;;;;13.53;11.73;;;26.70;58.20;;;;;;6199491;23;20397;-91
2021/07/23 19:33:42;;;;;;;19.20;13.63;;;26.60;58.70;;;;;;6194161;23;20432;-92
2021/07/23 19:36:11;;;;;;;14.80;13.30;;;26.60;58.70;;;;;;6193504;23;20423;-90